Flight Track Log - Related Links

Times and Time Zones

All times are in EDT time to prevent confusion due to time zone crossing. See the AAY842 flight status page for this flight to view local times or setup timezone preferences in your user account.

Time Position Orientation Groundspeed Altitude Reporting Facility
EDT Latitude Longitude Course Direction KTS MPH feet Rate Location/Type
Sun 07:31:10 AM 27.9333 -82.7000 24° Northeast 161 185 900  Level Tampa TRACON
Sun 07:31:46 AM 27.9667 -82.6833 24° Northeast 171 197 2,000 1,772 Climbing Tampa TRACON
Sun 07:33:39 AM 28.0683 -82.6761 North 214 246 5,300 2,185 Climbing Jacksonville Center
Sun 07:34:39 AM 28.1478 -82.6689 North 253 291 8,300 2,750 Climbing Jacksonville Center
Sun 07:35:39 AM 28.2289 -82.6664 North 276 318 10,800 2,000 Climbing Jacksonville Center
Sun 07:36:39 AM 28.3208 -82.6614 North 301 346 12,300 1,550 Climbing Jacksonville Center
Sun 07:37:39 AM 28.4272 -82.6567 North 341 392 13,900 1,850 Climbing Jacksonville Center
Sun 07:38:39 AM 28.5378 -82.6514 North 377 434 16,000 2,000 Climbing Jacksonville Center
Sun 07:39:39 AM 28.6567 -82.6442 North 407 468 17,900 1,800 Climbing Jacksonville Center
Sun 07:40:39 AM 28.7736 -82.6392 North 418 481 19,600 1,550 Climbing Jacksonville Center
Sun 07:41:39 AM 28.8967 -82.6317 North 429 494 21,000 1,000 Climbing Jacksonville Center
Sun 07:42:39 AM 29.0242 -82.6267 North 440 506 21,600 1,050 Climbing Jacksonville Center
Sun 07:43:39 AM 29.1514 -82.6192 North 445 512 23,100 1,550 Climbing Jacksonville Center
Sun 07:44:39 AM 29.2786 -82.6142 North 445 512 24,700 1,400 Climbing Jacksonville Center
Sun 07:45:39 AM 29.4103 -82.6064 North 457 526 25,900 1,200 Climbing Jacksonville Center
Sun 07:46:39 AM 29.5417 -82.5989 North 463 533 27,100 1,400 Climbing Jacksonville Center
Sun 07:47:39 AM 29.6567 -82.5939 North 463 533 28,700 1,400 Climbing Jacksonville Center
Sun 07:48:39 AM 29.7839 -82.5886 North 458 527 29,900 1,250 Climbing Jacksonville Center
Sun 07:49:39 AM 29.9133 -82.5786 North 458 527 31,200 1,200 Climbing Jacksonville Center
Sun 07:50:39 AM 30.0386 -82.5783 360° North 452 520 32,300 900 Climbing Jacksonville Center
Sun 07:51:39 AM 30.1639 -82.5706 North 452 520 33,000 350 Climbing Jacksonville Center
Sun 07:52:39 AM 30.2933 -82.5653 North 452 520 33,000  Level Jacksonville Center
Sun 07:53:39 AM 30.4206 -82.5578 North 457 526 33,000  Level Jacksonville Center
Sun 07:54:39 AM 30.5519 -82.5356 North 457 526 33,000  Level Jacksonville Center
Sun 07:55:39 AM 30.6750 -82.4892 18° North 462 532 33,000  Level Jacksonville Center
Sun 07:56:39 AM 30.8003 -82.4378 19° North 468 539 33,000  Level Jacksonville Center
Sun 07:57:39 AM 30.9294 -82.3889 18° North 473 544 33,000  Level Jacksonville Center
Sun 07:58:39 AM 31.0544 -82.3397 19° North 473 544 33,000  Level Jacksonville Center
Sun 07:59:39 AM 31.1797 -82.2903 19° North 473 544 33,000  Level Jacksonville Center
Sun 08:00:39 AM 31.3067 -82.2386 19° North 473 544 33,000 -50 Level Jacksonville Center
Sun 08:01:39 AM 31.4339 -82.1864 19° North 473 544 32,900  Descending Jacksonville Center
Sun 08:02:39 AM 31.5631 -82.1342 19° North 478 550 33,000 50 Climbing Jacksonville Center
Sun 08:03:39 AM 31.6983 -82.0794 19° North 478 550 33,000  Level Jacksonville Center
Sun 08:04:39 AM 31.8150 -82.0344 18° North 483 556 33,000  Level Jacksonville Center
Sun 08:05:39 AM 31.9544 -81.9769 19° North 483 556 33,000  Level Jacksonville Center
Sun 08:06:39 AM 32.0792 -81.9192 21° North 490 564 33,000  Level Jacksonville Center
Sun 08:07:39 AM 32.1958 -81.8664 21° North 490 564 33,000  Level Jacksonville Center
Sun 08:08:39 AM 32.3331 -81.8008 22° Northeast 490 564 33,000  Level Jacksonville Center
Sun 08:09:39 AM 32.4597 -81.7403 22° Northeast 490 564 33,000  Level Jacksonville Center
Sun 08:10:39 AM 32.5742 -81.6847 22° Northeast 490 564 33,000  Level Jacksonville Center
Sun 08:11:39 AM 32.6989 -81.6214 23° Northeast 490 564 33,000  Level Jacksonville Center
Sun 08:12:39 AM 32.8275 -81.5625 21° North 490 564 33,000  Level Jacksonville Center
Sun 08:13:39 AM 32.9542 -81.5014 22° Northeast 490 564 33,000  Level Jacksonville Center
Sun 08:14:39 AM 33.0808 -81.4372 23° Northeast 490 564 33,000  Level Jacksonville Center
Sun 08:15:39 AM 33.2094 -81.3781 21° North 490 564 33,000  Level Jacksonville Center
Sun 08:16:39 AM 33.3361 -81.3139 23° Northeast 490 564 33,000  Level Jacksonville Center
Sun 08:17:39 AM 33.4667 -81.2492 22° Northeast 490 564 33,000  Level Jacksonville Center
Sun 08:18:39 AM 33.6058 -81.1844 21° North 490 564 33,000  Level Jacksonville Center
Sun 08:19:39 AM 33.7342 -81.1194 23° Northeast 490 564 33,000  Level Jacksonville Center
Sun 08:20:39 AM 33.8481 -81.0569 24° Northeast 495 570 33,000  Level Jacksonville Center
Sun 08:21:39 AM 33.9953 -80.9889 21° North 495 570 33,000  Level Jacksonville Center
Sun 08:22:39 AM 34.1217 -80.9308 21° North 495 570 33,000  Level Jacksonville Center
Sun 08:24:14 AM 34.3181 -80.8344 22° Northeast 491 565 33,000  Level Atlanta Center
Sun 08:25:14 AM 34.4583 -80.7689 21° North 496 571 33,000  Level Atlanta Center
Sun 08:26:14 AM 34.5942 -80.7006 22° Northeast 504 580 33,000  Level Atlanta Center
Sun 08:27:14 AM 34.7281 -80.6369 21° North 515 593 33,000  Level Atlanta Center
Sun 08:28:14 AM 34.8636 -80.5656 23° Northeast 515 593 33,000  Level Atlanta Center
Sun 08:29:14 AM 34.9975 -80.5017 21° North 515 593 33,000  Level Atlanta Center
Sun 08:30:14 AM 35.1333 -80.4325 23° Northeast 515 593 33,000  Level Atlanta Center
Sun 08:31:14 AM 35.2731 -80.3628 22° Northeast 525 604 33,000  Level Atlanta Center
Sun 08:32:14 AM 35.4089 -80.2981 21° North 525 604 33,000  Level Atlanta Center
Sun 08:33:14 AM 35.5442 -80.2256 24° Northeast 525 604 33,000  Level Atlanta Center
Sun 08:34:14 AM 35.6819 -80.1553 23° Northeast 531 611 33,000  Level Atlanta Center
Sun 08:35:14 AM 35.8203 -80.1128 14° North 526 605 33,000  Level Atlanta Center
Sun 08:37:19 AM 36.1153 -80.0917 North 524 603 33,000  Level Washington Center
Sun 08:38:17 AM 36.2547 -80.0431 16° North 518 596 33,000  Level Washington Center
Sun 08:39:18 AM 36.3889 -79.9706 24° Northeast 518 596 33,000  Level Washington Center
Sun 08:40:18 AM 36.5231 -79.8981 23° Northeast 518 596 33,000  Level Washington Center
Sun 08:41:18 AM 36.6569 -79.8303 22° Northeast 518 596 33,000  Level Washington Center
Sun 08:42:17 AM 36.7928 -79.7600 23° Northeast 518 596 33,000  Level Washington Center
Sun 08:43:18 AM 36.9267 -79.6892 23° Northeast 518 596 33,000  Level Washington Center
Sun 08:44:18 AM 37.0583 -79.6208 22° Northeast 513 590 33,000  Level Washington Center
Sun 08:45:18 AM 37.1922 -79.5497 23° Northeast 513 590 33,000  Level Washington Center
Sun 08:46:19 AM 37.3261 -79.4756 24° Northeast 513 590 33,000  Level Washington Center
Sun 08:47:17 AM 37.4494 -79.4033 25° Northeast 520 598 33,000  Level Washington Center
Sun 08:48:18 AM 37.6019 -79.3325 20° North 532 612 33,000  Level Washington Center
Sun 08:49:18 AM 37.7122 -79.2722 23° Northeast 527 606 33,000  Level Washington Center
Sun 08:50:18 AM 37.8647 -79.1928 22° Northeast 527 606 33,000  Level Washington Center
Sun 08:51:19 AM 38.0025 -79.1203 23° Northeast 527 606 33,000  Level Washington Center
Sun 08:52:19 AM 38.1361 -79.0447 24° Northeast 522 601 33,000  Level Washington Center
Sun 08:53:19 AM 38.2758 -78.9692 23° Northeast 522 601 33,000  Level Washington Center
Sun 08:54:17 AM 38.4136 -78.8961 23° Northeast 522 601 33,000  Level Washington Center
Sun 08:55:18 AM 38.5369 -78.8061 30° Northeast 516 594 33,000  Level Washington Center
Sun 08:56:17 AM 38.6725 -78.7189 27° Northeast 522 601 33,000  Level Washington Center
Sun 08:57:18 AM 38.8228 -78.6400 22° Northeast 522 601 33,000  Level Washington Center
Sun 08:58:18 AM 38.9600 -78.5628 24° Northeast 529 609 33,000  Level Washington Center
Sun 08:59:16 AM 39.0975 -78.4883 23° Northeast 529 609 33,000  Level Washington Center
Sun 09:00:17 AM 39.2367 -78.4133 23° Northeast 529 609 33,000  Level Washington Center
Sun 09:01:19 AM 39.3719 -78.3353 24° Northeast 529 609 33,000  Level Washington Center
Sun 09:03:22 AM 39.6450 -78.1833 23° Northeast 537 618 33,000  Level New York Center
Sun 09:04:22 AM 39.7811 -78.1086 23° Northeast 532 612 33,000  Level New York Center
Sun 09:05:23 AM 39.9150 -78.0306 24° Northeast 532 612 33,000  Level New York Center
Sun 09:06:23 AM 40.0514 -77.9525 24° Northeast 532 612 33,000  Level New York Center
Sun 09:07:24 AM 40.1833 -77.8736 25° Northeast 527 606 33,000  Level New York Center
Sun 09:07:54 AM 40.2667 -77.8247 24° Northeast 531 611 33,000  Level Cleveland Center
Sun 09:08:56 AM 40.3992 -77.7489 24° Northeast 531 611 33,000 -48 Level Cleveland Center
Sun 09:09:58 AM 40.5306 -77.6717 24° Northeast 525 604 32,900 -532 Descending Cleveland Center
Sun 09:11:00 AM 40.6631 -77.5953 24° Northeast 525 604 31,900 -919 Descending Cleveland Center
Sun 09:12:02 AM 40.8214 -77.5031 24° Northeast 525 604 31,000 -435 Descending Cleveland Center
Sun 09:13:04 AM 40.9533 -77.4258 24° Northeast 525 604 31,000 -774 Level Cleveland Center
Sun 09:14:06 AM 41.0856 -77.3475 24° Northeast 525 604 29,400 -2,032 Descending Cleveland Center
Sun 09:15:08 AM 41.2175 -77.2689 24° Northeast 525 604 26,800 -2,516 Descending Cleveland Center
Sun 09:16:10 AM 41.3456 -77.1947 23° Northeast 516 594 24,200 -1,701 Descending Cleveland Center
Sun 09:17:22 AM 41.4964 -77.1025 25° Northeast 493 567 23,000 -537 Descending New York Center
Sun 09:18:24 AM 41.6208 -77.0311 23° Northeast 488 562 23,000  Level New York Center
Sun 09:19:22 AM 41.7436 -76.9564 24° Northeast 482 555 23,000 -712 Level New York Center
Sun 09:20:22 AM 41.8661 -76.8814 25° Northeast 482 555 21,600 -1,850 Descending New York Center
Sun 09:21:22 AM 41.9822 -76.8114 24° Northeast 471 542 19,300 -2,033 Descending New York Center
Sun 09:22:23 AM 42.1003 -76.7383 25° Northeast 449 517 17,500 -1,800 Descending New York Center
Sun 09:23:22 AM 42.2078 -76.6722 24° Northeast 433 498 15,700 -1,884 Descending New York Center
Sun 09:24:24 AM 42.3153 -76.6033 25° Northeast 428 493 13,700 -1,902 Descending New York Center
Sun 09:25:25 AM 42.4139 -76.5447 24° Northeast 411 473 11,800 -1,446 Descending New York Center
Sun 09:26:16 AM 42.4917 -76.4956 25° Northeast 391 450 11,000 -429 Descending Boston Center
Sun 09:27:17 AM 42.5850 -76.4361 25° Northeast 378 435 11,000  Level Boston Center
Sun 09:28:17 AM 42.6644 -76.3508 38° Northeast 368 423 11,000  Level Boston Center
Sun 09:29:17 AM 42.7483 -76.2761 33° Northeast 367 422 11,000 -814 Level Boston Center
Sun 09:30:15 AM 42.8331 -76.2244 24° Northeast 299 344 9,400 -2,034 Descending Boston Center
Sun 09:31:15 AM 42.9069 -76.1808 23° Northeast 280 322 7,000 -2,213 Descending Boston Center
Sun 09:32:17 AM 42.9758 -76.1414 23° Northeast 272 313 4,900 -1,672 Descending Boston Center
Sun 09:33:17 AM 43.0222 -76.0686 49° Northeast 244 281 3,600 -942 Descending Boston Center
Sun 09:34:18 AM 43.0572 -76.0008 55° Northeast 212 244 3,000 -541 Descending Boston Center
Sun 09:35:19 AM 43.0975 -75.9522 41° Northeast 181 208 2,500 -639 Descending Boston Center
Sun 09:36:20 AM 43.1119 -76.0061 290° West 154 177 1,700 -800 Descending Boston Center
Sun 09:37:19 AM 43.1092 -76.0608 266° West 138 159 900 -814 Descending Boston Center

Login

Don't have an account? Register now (free) for customized features, flight alerts, and more!